Time;durP1;ratioP1;P1;durP2;ratioP2;P2;SDS_P1;SDS_P2;PMS_P1;PMS_P2;Temp;Humidity;BMP_temperature;BMP_pressure;BME280_temperature;BME280_humidity;BME280_pressure;Samples;Min_cycle;Max_cycle;Signal;HPM_P1;HPM_P2
2023/07/20 00:01:59;;;;;;;8.77;4.53;;;;;;;18.78;100.00;101303.81;5267841;28;20025;-76
2023/07/20 00:04:30;;;;;;;10.23;5.25;;;;;;;18.78;100.00;101308.31;5263096;28;20457;-76
2023/07/20 00:07:03;;;;;;;8.20;4.47;;;;;;;18.69;100.00;101299.53;5265241;28;20592;-76
2023/07/20 00:09:34;;;;;;;6.88;3.97;;;;;;;18.64;100.00;101301.88;5271197;28;20456;-77
2023/07/20 00:12:06;;;;;;;7.97;4.20;;;;;;;18.62;100.00;101298.56;5269088;28;20118;-76
2023/07/20 00:14:37;;;;;;;10.00;4.70;;;;;;;18.64;100.00;101301.88;5260580;28;20427;-76
2023/07/20 00:17:09;;;;;;;8.95;4.88;;;;;;;18.61;100.00;101308.34;5248675;28;20047;-76
2023/07/20 00:19:40;;;;;;;6.95;4.28;;;;;;;18.59;100.00;101307.69;5264357;28;20016;-76
2023/07/20 00:22:13;;;;;;;8.50;4.47;;;;;;;18.55;100.00;101308.19;5266514;28;20032;-77
2023/07/20 00:24:44;;;;;;;7.88;4.53;;;;;;;18.54;100.00;101307.38;5257701;28;20114;-76
2023/07/20 00:27:15;;;;;;;6.38;4.53;;;;;;;18.55;100.00;101309.03;5264817;28;20071;-76
2023/07/20 00:29:46;;;;;;;9.98;4.68;;;;;;;18.61;100.00;101313.66;5248326;28;20124;-76
2023/07/20 00:32:18;;;;;;;7.85;4.85;;;;;;;18.59;100.00;101309.50;5266002;28;20029;-76
2023/07/20 00:34:49;;;;;;;7.05;4.90;;;;;;;18.60;100.00;101311.16;5258418;28;20372;-76
2023/07/20 00:37:20;;;;;;;9.32;4.43;;;;;;;18.59;100.00;101301.56;5262050;28;20044;-76
2023/07/20 00:39:53;;;;;;;10.47;5.37;;;;;;;18.47;100.00;101293.13;5241902;28;20067;-75
2023/07/20 00:42:24;;;;;;;6.90;4.80;;;;;;;18.46;100.00;101297.63;5246002;28;20028;-75
2023/07/20 00:44:55;;;;;;;7.47;4.83;;;;;;;18.46;100.00;101302.09;5261048;28;20364;-76
2023/07/20 00:47:27;;;;;;;9.10;4.85;;;;;;;18.43;100.00;101315.69;5259933;28;20473;-76
2023/07/20 00:49:58;;;;;;;9.70;5.30;;;;;;;18.33;100.00;101309.75;5256452;28;20078;-77
2023/07/20 00:52:30;;;;;;;8.00;4.72;;;;;;;18.32;100.00;101303.63;5256954;28;20076;-77
2023/07/20 00:55:01;;;;;;;6.78;5.10;;;;;;;18.34;100.00;101300.81;5240328;28;20398;-75
2023/07/20 00:57:33;;;;;;;9.65;5.43;;;;;;;18.27;100.00;101307.78;5261420;28;20115;-76
2023/07/20 01:00:06;;;;;;;7.80;4.47;;;;;;;18.26;100.00;101306.13;5243145;28;20029;-77
2023/07/20 01:02:37;;;;;;;8.95;5.07;;;;;;;18.16;100.00;101309.78;5260587;28;20080;-75
2023/07/20 01:05:09;;;;;;;9.57;5.40;;;;;;;18.11;100.00;101301.53;5259284;28;20108;-76
2023/07/20 01:07:58;;;;;;;6.82;5.00;;;;;;;18.34;100.00;101308.78;5242508;28;20087;-76
2023/07/20 01:10:51;;;;;;;8.13;5.47;;;;;;;18.36;100.00;101314.72;5257161;28;20662;-76
2023/07/20 01:13:23;;;;;;;7.88;5.18;;;;;;;17.97;100.00;101312.81;5261560;28;20032;-76
2023/07/20 01:15:58;;;;;;;8.47;4.73;;;;;;;18.06;100.00;101308.31;5261243;28;20036;-76
2023/07/20 01:18:30;;;;;;;9.43;5.57;;;;;;;17.95;100.00;101312.13;5243187;28;20060;-76
2023/07/20 01:21:08;;;;;;;8.18;5.68;;;;;;;18.01;100.00;101308.00;5263326;28;20111;-77
2023/07/20 01:24:01;;;;;;;10.05;5.70;;;;;;;18.06;100.00;101306.47;5255871;28;20082;-76
2023/07/20 01:27:01;;;;;;;9.55;5.45;;;;;;;17.92;100.00;101318.63;5245142;28;20457;-76
2023/07/20 01:29:50;;;;;;;10.18;5.90;;;;;;;18.11;100.00;101306.81;5264866;28;20107;-77
2023/07/20 01:32:24;;;;;;;9.55;5.45;;;;;;;17.92;100.00;101325.75;5261473;28;20171;-76
2023/07/20 01:34:58;;;;;;;11.20;6.10;;;;;;;17.91;100.00;101326.72;5262996;28;20381;-76
2023/07/20 01:37:31;;;;;;;10.00;5.65;;;;;;;17.90;100.00;101317.13;5259331;28;20425;-77
2023/07/20 01:40:03;;;;;;;9.27;5.38;;;;;;;17.93;100.00;101309.66;5254700;28;20063;-76
2023/07/20 01:42:35;;;;;;;8.07;6.10;;;;;;;17.96;100.00;101313.81;5257678;28;20119;-77
2023/07/20 01:45:07;;;;;;;6.65;4.95;;;;;;;18.08;100.00;101312.47;5263063;28;20529;-76
2023/07/20 01:47:38;;;;;;;8.63;5.35;;;;;;;18.08;100.00;101319.59;5238938;28;20037;-76
2023/07/20 01:50:10;;;;;;;9.23;6.07;;;;;;;18.10;100.00;101315.75;5260941;28;20470;-76
2023/07/20 01:52:41;;;;;;;11.43;6.07;;;;;;;18.05;100.00;101315.44;5258700;28;20412;-76
2023/07/20 01:55:12;;;;;;;11.20;6.10;;;;;;;18.15;100.00;101324.06;5260891;28;20490;-76
2023/07/20 01:57:43;;;;;;;9.57;6.40;;;;;;;18.16;100.00;101323.06;5262340;28;20055;-76
2023/07/20 02:00:15;;;;;;;9.53;5.77;;;;;;;18.14;100.00;101324.22;5266087;28;20032;-77
2023/07/20 02:02:46;;;;;;;11.38;7.10;;;;;;;18.14;100.00;101322.38;5265351;28;21234;-76
2023/07/20 02:05:18;;;;;;;11.93;6.85;;;;;;;18.20;100.00;101328.84;5264897;28;20025;-76
2023/07/20 02:07:49;;;;;;;9.07;5.65;;;;;;;18.17;100.00;101330.00;5235384;28;20025;-76
2023/07/20 02:10:20;;;;;;;14.88;6.70;;;;;;;18.17;100.00;101327.34;5241804;28;20021;-76
2023/07/20 02:12:52;;;;;;;8.77;6.60;;;;;;;18.27;100.00;101326.38;5259942;28;20032;-76
2023/07/20 02:15:23;;;;;;;9.70;6.70;;;;;;;18.25;100.00;101331.81;5258190;28;20096;-76
2023/07/20 02:17:54;;;;;;;11.55;6.90;;;;;;;18.23;100.00;101332.00;5260068;28;20056;-77
2023/07/20 02:20:27;;;;;;;10.80;7.03;;;;;;;18.22;100.00;101334.81;5257594;28;20029;-76
2023/07/20 02:22:58;;;;;;;9.18;7.53;;;;;;;18.17;100.00;101330.00;5242057;28;20119;-76
2023/07/20 02:25:29;;;;;;;11.40;7.15;;;;;;;18.20;100.00;101337.63;5258023;28;20106;-76
2023/07/20 02:28:01;;;;;;;8.30;7.10;;;;;;;18.15;100.00;101339.97;5241987;28;20029;-77
2023/07/20 02:30:32;;;;;;;9.32;7.90;;;;;;;18.26;100.00;101340.59;5262396;28;20028;-77
2023/07/20 02:33:05;;;;;;;11.30;7.85;;;;;;;18.30;100.00;101336.63;5260302;28;20028;-76
2023/07/20 02:35:36;;;;;;;12.00;8.60;;;;;;;18.32;100.00;101339.94;5260573;28;20024;-76
2023/07/20 02:38:07;;;;;;;11.63;8.57;;;;;;;18.28;100.00;101350.06;5255793;28;20032;-75
2023/07/20 02:40:39;;;;;;;10.80;8.63;;;;;;;18.34;100.00;101361.84;5262227;28;20028;-75
2023/07/20 02:43:10;;;;;;;11.05;8.95;;;;;;;18.30;100.00;101344.59;5240952;28;20028;-75
2023/07/20 02:45:42;;;;;;;10.65;8.40;;;;;;;18.32;100.00;101351.38;5255965;28;20036;-76
2023/07/20 02:48:14;;;;;;;12.73;9.03;;;;;;;18.37;100.00;101346.41;5257389;28;20033;-75
2023/07/20 02:50:45;;;;;;;10.38;9.32;;;;;;;18.33;100.00;101349.53;5255601;28;20302;-76
2023/07/20 02:53:16;;;;;;;12.57;10.37;;;;;;;18.32;100.00;101353.19;5259834;28;20024;-75
2023/07/20 02:55:48;;;;;;;11.27;9.50;;;;;;;18.32;100.00;101356.69;5255680;28;20287;-75
2023/07/20 02:58:19;;;;;;;11.68;10.02;;;;;;;18.32;100.00;101367.28;5234772;28;20021;-75
2023/07/20 03:00:50;;;;;;;10.48;8.93;;;;;;;18.29;100.00;101369.44;5262633;28;20094;-76
2023/07/20 03:03:22;;;;;;;13.63;9.93;;;;;;;18.31;100.00;101375.41;5258632;28;20029;-76
2023/07/20 03:05:55;;;;;;;11.55;10.15;;;;;;;18.27;100.00;101376.75;5259697;28;20043;-76
2023/07/20 03:08:27;;;;;;;11.48;10.27;;;;;;;18.09;100.00;101368.97;5240851;28;20494;-75
2023/07/20 03:10:58;;;;;;;17.40;10.57;;;;;;;18.16;100.00;101372.63;5260393;28;20028;-76
2023/07/20 03:13:29;;;;;;;10.85;9.82;;;;;;;18.15;100.00;101376.28;5259695;28;20032;-75
2023/07/20 03:16:01;;;;;;;12.02;10.82;;;;;;;18.21;100.00;101383.53;5242916;28;20125;-75
2023/07/20 03:18:32;;;;;;;11.55;10.45;;;;;;;18.13;100.00;101372.94;5260442;28;20074;-76
2023/07/20 03:21:04;;;;;;;11.05;9.73;;;;;;;18.17;100.00;101388.34;5265101;28;20021;-75
2023/07/20 03:23:35;;;;;;;11.32;9.80;;;;;;;18.10;100.00;101384.69;5260878;28;20058;-75
2023/07/20 03:26:09;;;;;;;10.65;9.60;;;;;;;18.05;100.00;101373.78;5262647;28;20554;-76
2023/07/20 03:28:41;;;;;;;10.35;9.35;;;;;;;18.06;100.00;101386.03;5256850;28;20563;-75
2023/07/20 03:31:12;;;;;;;11.68;10.48;;;;;;;17.98;100.00;101380.72;5258197;28;20020;-75
2023/07/20 03:33:44;;;;;;;13.85;10.05;;;;;;;18.00;100.00;101386.72;5260586;28;20044;-75
2023/07/20 03:36:15;;;;;;;12.32;9.88;;;;;;;17.99;100.00;101390.34;5238166;28;20382;-76
2023/07/20 03:38:46;;;;;;;11.73;10.52;;;;;;;17.94;100.00;101388.19;5258434;28;20028;-76
2023/07/20 03:41:19;;;;;;;12.32;11.07;;;;;;;17.85;100.00;101380.41;5257709;28;20166;-77
2023/07/20 03:43:51;;;;;;;12.10;10.90;;;;;;;17.85;100.00;101397.13;5241462;28;20382;-76
2023/07/20 03:46:22;;;;;;;11.73;10.52;;;;;;;17.84;100.00;101390.19;5260515;28;20029;-76
2023/07/20 03:48:53;;;;;;;12.10;10.77;;;;;;;17.79;100.00;101389.81;5266940;28;20044;-76
2023/07/20 03:51:25;;;;;;;11.63;9.90;;;;;;;17.69;100.00;101391.75;5259618;28;20112;-75
2023/07/20 03:53:56;;;;;;;11.57;9.70;;;;;;;17.78;100.00;101405.91;5257501;28;20025;-74
2023/07/20 03:56:27;;;;;;;10.20;9.20;;;;;;;17.86;100.00;101408.56;5263340;28;20078;-75
2023/07/20 03:59:01;;;;;;;10.07;9.05;;;;;;;17.76;100.00;101398.09;5264112;28;20021;-75
2023/07/20 04:01:37;;;;;;;10.15;9.15;;;;;;;17.71;100.00;101405.69;5267700;28;20020;-76
2023/07/20 04:04:08;;;;;;;10.02;9.02;;;;;;;17.70;100.00;101396.91;5261589;28;20021;-76
2023/07/20 04:06:39;;;;;;;10.32;9.23;;;;;;;17.67;100.00;101393.75;5263899;28;20186;-76
2023/07/20 04:09:11;;;;;;;9.40;8.25;;;;;;;17.75;100.00;101407.88;5258329;28;20048;-75
2023/07/20 04:11:43;;;;;;;8.93;8.13;;;;;;;17.69;100.00;101410.31;5265013;28;20039;-75
2023/07/20 04:14:14;;;;;;;9.65;8.45;;;;;;;17.66;100.00;101405.38;5264718;28;20028;-75
2023/07/20 04:16:48;;;;;;;9.02;8.02;;;;;;;17.80;100.00;101410.03;5244115;28;20040;-75
2023/07/20 04:19:20;;;;;;;8.90;8.00;;;;;;;17.66;100.00;101403.53;5266190;28;20739;-75
2023/07/20 04:21:51;;;;;;;8.88;8.07;;;;;;;17.68;100.00;101411.31;5246639;28;20029;-75
2023/07/20 04:24:22;;;;;;;9.82;8.93;;;;;;;17.78;100.00;101405.91;5265188;28;20501;-76
2023/07/20 04:26:54;;;;;;;8.25;7.40;;;;;;;17.82;100.00;101415.19;5265884;28;20024;-76
2023/07/20 04:29:25;;;;;;;8.75;7.82;;;;;;;17.64;100.00;101410.81;5267107;28;20075;-76
2023/07/20 04:31:56;;;;;;;7.63;6.93;;;;;;;17.71;100.00;101403.88;5254789;28;20665;-76
2023/07/20 04:34:27;;;;;;;8.35;7.55;;;;;;;17.70;100.00;101404.03;5263948;28;20139;-76
2023/07/20 04:36:59;;;;;;;9.68;7.97;;;;;;;17.65;100.00;101414.28;5266514;28;20040;-76
2023/07/20 04:39:30;;;;;;;8.65;7.63;;;;;;;17.64;100.00;101415.28;5264573;28;20035;-76
2023/07/20 04:42:02;;;;;;;9.07;8.23;;;;;;;17.62;100.00;101410.16;5241552;28;20013;-75
2023/07/20 04:44:33;;;;;;;9.10;8.27;;;;;;;17.61;100.00;101408.47;5265061;28;20028;-76
2023/07/20 04:47:05;;;;;;;9.65;8.68;;;;;;;17.57;100.00;101407.16;5261016;28;20450;-76
2023/07/20 04:49:36;;;;;;;9.55;8.65;;;;;;;17.53;100.00;101411.09;5265776;28;20455;-77
2023/07/20 04:52:07;;;;;;;10.30;9.20;;;;;;;17.63;100.00;101417.09;5258290;28;20051;-77
2023/07/20 04:54:40;;;;;;;9.57;8.68;;;;;;;17.63;100.00;101418.94;5261618;28;20069;-77
2023/07/20 04:57:12;;;;;;;10.57;9.57;;;;;;;17.58;100.00;101411.47;5260584;28;20039;-76
2023/07/20 04:59:44;;;;;;;11.68;10.52;;;;;;;17.62;100.00;101412.81;5265429;28;20634;-76
2023/07/20 05:02:15;;;;;;;11.15;10.05;;;;;;;17.57;100.00;101411.63;5261665;28;20025;-77
2023/07/20 05:04:46;;;;;;;12.57;9.52;;;;;;;17.69;100.00;101408.53;5257763;28;20037;-76
2023/07/20 05:07:17;;;;;;;11.63;10.50;;;;;;;17.59;100.00;101391.09;5261115;28;20024;-77
2023/07/20 05:09:49;;;;;;;11.60;10.38;;;;;;;17.64;100.00;101405.50;5260307;28;20034;-76
2023/07/20 05:12:20;;;;;;;12.07;10.90;;;;;;;17.57;100.00;101398.38;5264366;28;20134;-76
2023/07/20 05:14:51;;;;;;;12.32;11.15;;;;;;;17.71;100.00;101408.34;5254860;28;20047;-77
2023/07/20 05:17:23;;;;;;;11.20;10.20;;;;;;;17.58;100.00;101400.88;5259983;28;20029;-77
2023/07/20 05:19:54;;;;;;;11.52;10.32;;;;;;;17.60;100.00;101409.47;5247165;28;20052;-76
2023/07/20 05:22:25;;;;;;;11.65;10.35;;;;;;;17.55;100.00;101419.75;5269650;28;20020;-77
2023/07/20 05:25:00;;;;;;;11.15;10.15;;;;;;;17.58;100.00;101408.81;5259165;28;20041;-77
2023/07/20 05:27:31;;;;;;;11.52;10.43;;;;;;;17.42;100.00;101414.06;5257891;28;20086;-76
2023/07/20 05:30:03;;;;;;;10.77;9.77;;;;;;;17.46;100.00;101410.94;5263815;28;20025;-76
2023/07/20 05:32:35;;;;;;;11.07;10.00;;;;;;;17.55;100.00;101427.69;5262778;28;20082;-76
2023/07/20 05:35:08;;;;;;;10.15;9.25;;;;;;;17.57;100.00;101428.34;5258276;28;20171;-76
2023/07/20 05:37:39;;;;;;;;;;;;;;;18.34;100.00;101428.16;5260378;28;20036;-76
2023/07/20 05:40:12;;;;;;;9.47;8.57;;;;;;;17.62;100.00;101427.88;5260265;28;19935;-76
2023/07/20 05:42:43;;;;;;;;;;;;;;;18.37;100.00;101428.66;5255259;28;20032;-76
2023/07/20 05:45:15;;;;;;;8.77;7.87;;;;;;;17.67;100.00;101434.34;5264980;28;20348;-77
2023/07/20 05:47:46;;;;;;;8.20;7.05;;;;;;;17.74;100.00;101438.00;5261610;28;20045;-77
2023/07/20 05:50:18;;;;;;;7.47;6.70;;;;;;;17.72;100.00;101432.03;5262338;28;20021;-76
2023/07/20 05:52:52;;;;;;;8.57;7.35;;;;;;;17.80;100.00;101436.53;5256709;28;20485;-77
2023/07/20 05:55:23;;;;;;;9.70;7.28;;;;;;;17.73;100.00;101430.22;5258614;28;20482;-77
2023/07/20 05:57:55;;;;;;;7.40;6.70;;;;;;;17.74;100.00;101437.19;5257999;28;20120;-77
2023/07/20 06:00:27;;;;;;;7.03;6.33;;;;;;;17.85;100.00;101433.41;5238618;28;20029;-77
2023/07/20 06:02:58;;;;;;;5.90;5.40;;;;;;;17.83;100.00;101438.03;5247975;28;20414;-76
2023/07/20 06:05:30;;;;;;;6.07;4.97;;;;;;;17.84;100.00;101435.25;5266267;28;20032;-76
2023/07/20 06:08:01;;;;;;;5.57;4.88;;;;;;;17.89;100.00;101451.47;5263779;28;20394;-76
2023/07/20 06:10:33;;;;;;;5.18;4.68;;;;;;;17.94;100.00;101438.56;5241753;28;20071;-77
2023/07/20 06:13:04;;;;;;;5.28;4.72;;;;;;;17.97;100.00;101435.59;5258015;28;20033;-76
2023/07/20 06:15:35;;;;;;;6.35;5.53;;;;;;;18.07;100.00;101443.38;5260862;28;20031;-76
2023/07/20 06:18:07;;;;;;;5.65;5.10;;;;;;;18.05;100.00;101440.06;5260783;28;20090;-76
2023/07/20 06:20:38;;;;;;;6.38;5.78;;;;;;;18.14;100.00;101444.38;5258979;28;20035;-76
2023/07/20 06:23:10;;;;;;;5.47;4.97;;;;;;;18.16;100.00;101437.09;5260654;28;20021;-76
2023/07/20 06:25:41;;;;;;;8.52;4.85;;;;;;;18.30;100.00;101448.03;5240100;28;20084;-76
2023/07/20 06:28:12;;;;;;;6.18;5.32;;;;;;;18.35;100.00;101453.66;5259551;28;20033;-76
2023/07/20 06:30:44;;;;;;;5.35;4.85;;;;;;;18.46;100.00;101456.00;5266006;28;20032;-76
2023/07/20 06:33:15;;;;;;;6.18;5.40;;;;;;;18.70;100.00;101463.94;5257461;28;20327;-77
2023/07/20 06:35:47;;;;;;;5.50;4.72;;;;;;;18.92;100.00;101453.63;5257478;28;20505;-75
2023/07/20 06:38:18;;;;;;;9.20;5.18;;;;;;;18.85;100.00;101442.03;5249152;28;20119;-76
2023/07/20 06:40:50;;;;;;;6.63;6.03;;;;;;;18.92;100.00;101445.66;5244584;28;20035;-76
2023/07/20 06:43:22;;;;;;;6.78;6.05;;;;;;;18.87;100.00;101446.16;5256063;28;20029;-76
2023/07/20 06:45:53;;;;;;;7.03;6.32;;;;;;;18.94;100.00;101451.59;5243772;28;21099;-77
2023/07/20 06:48:25;;;;;;;7.70;6.25;;;;;;;18.91;100.00;101439.53;5240706;28;20485;-76
2023/07/20 06:50:56;;;;;;;7.28;6.63;;;;;;;19.01;100.00;101451.75;5257473;28;20115;-76
2023/07/20 06:53:28;;;;;;;7.35;6.57;;;;;;;18.96;100.00;101437.19;5241958;28;20213;-77
2023/07/20 06:55:59;;;;;;;7.28;6.40;;;;;;;18.82;100.00;101435.22;5263113;28;20363;-76
2023/07/20 06:58:31;;;;;;;7.95;6.78;;;;;;;19.00;100.00;101452.78;5262597;28;20123;-76
2023/07/20 07:01:06;;;;;;;7.10;6.40;;;;;;;19.18;100.00;101461.34;5255806;28;20021;-76
2023/07/20 07:03:37;;;;;;;6.90;5.28;;;;;;;19.01;100.00;101465.88;5258619;28;20592;-76
2023/07/20 07:06:09;;;;;;;5.95;4.28;;;;;;;19.13;100.00;101461.00;5254303;28;20029;-76
2023/07/20 07:08:40;;;;;;;3.33;3.03;;;;;;;19.23;100.00;101466.97;5261889;28;20075;-76
2023/07/20 07:11:11;;;;;;;3.75;3.08;;;;;;;19.32;100.00;101463.28;5260506;28;20017;-76
2023/07/20 07:13:43;;;;;;;3.08;2.50;;;;;;;19.41;100.00;101472.06;5241292;28;20017;-76
2023/07/20 07:16:18;;;;;;;3.58;2.40;;;;;;;19.55;100.00;101467.84;5260832;28;20020;-75
2023/07/20 07:18:51;;;;;;;3.20;2.55;;;;;;;19.66;100.00;101472.78;5259232;28;20486;-76
2023/07/20 07:21:22;;;;;;;3.20;1.50;;;;;;;19.80;100.00;101461.41;5254115;28;20025;-76
2023/07/20 07:23:57;;;;;;;5.33;2.17;;;;;;;19.99;100.00;101462.78;5240360;28;20040;-76
2023/07/20 07:26:28;;;;;;;4.55;2.53;;;;;;;20.32;100.00;101466.03;5251578;28;20031;-75
2023/07/20 07:28:59;;;;;;;4.35;3.10;;;;;;;20.36;100.00;101469.97;5253829;28;20509;-76
2023/07/20 07:31:38;;;;;;;5.95;3.25;;;;;;;20.39;100.00;101474.13;5260214;28;20955;-76
2023/07/20 07:34:09;;;;;;;3.63;2.72;;;;;;;20.20;100.00;101466.63;5241082;28;20063;-77
2023/07/20 07:36:40;;;;;;;3.03;2.63;;;;;;;20.14;100.00;101468.97;5261635;28;20233;-77
2023/07/20 07:39:12;;;;;;;4.27;3.40;;;;;;;20.07;100.00;101467.22;5251307;28;20036;-76
2023/07/20 07:41:43;;;;;;;4.83;3.30;;;;;;;20.17;100.00;101476.63;5263578;28;20345;-76
2023/07/20 07:44:14;;;;;;;4.00;2.40;;;;;;;20.14;100.00;101476.13;5260705;28;20027;-77
2023/07/20 07:46:46;;;;;;;7.43;2.60;;;;;;;20.24;100.00;101481.22;5239615;28;20105;-77
2023/07/20 07:49:19;;;;;;;4.10;2.13;;;;;;;20.32;100.00;101483.81;5241960;28;20039;-76
2023/07/20 07:51:50;;;;;;;4.05;1.85;;;;;;;20.26;100.00;101479.22;5265117;28;20105;-76
2023/07/20 07:54:21;;;;;;;2.75;1.35;;;;;;;20.49;99.87;101488.03;5258808;28;20108;-76
2023/07/20 07:56:53;;;;;;;3.90;1.60;;;;;;;20.77;96.83;101482.13;5258570;28;20033;-77
2023/07/20 07:59:24;;;;;;;2.80;1.23;;;;;;;20.96;94.46;101491.44;5266487;28;20035;-76
2023/07/20 08:01:55;;;;;;;4.30;1.60;;;;;;;20.86;87.86;101481.84;5242074;28;20239;-76
2023/07/20 08:04:26;;;;;;;1.50;1.00;;;;;;;20.95;86.32;101487.09;5259197;28;20036;-76
2023/07/20 08:06:59;;;;;;;2.63;1.00;;;;;;;21.11;80.10;101493.09;5259007;28;20098;-77
2023/07/20 08:09:30;;;;;;;1.80;0.90;;;;;;;21.54;83.22;101481.78;5239380;28;20032;-77
2023/07/20 08:12:02;;;;;;;1.90;1.20;;;;;;;21.67;80.59;101481.94;5246161;28;20039;-76
2023/07/20 08:14:33;;;;;;;2.57;1.27;;;;;;;21.93;81.20;101497.38;5260138;28;20024;-77
2023/07/20 08:17:05;;;;;;;1.83;0.90;;;;;;;22.00;71.78;101495.63;5266541;28;20036;-77
2023/07/20 08:19:41;;;;;;;1.43;0.67;;;;;;;22.18;69.47;101494.41;5239798;28;20068;-76
2023/07/20 08:22:12;;;;;;;3.45;0.90;;;;;;;22.18;65.75;101491.72;5259243;28;20074;-77
2023/07/20 08:24:47;;;;;;;1.47;0.80;;;;;;;22.47;66.57;101493.44;5257370;28;20040;-76
2023/07/20 08:27:18;;;;;;;1.73;0.80;;;;;;;22.55;65.33;101493.28;5266003;28;20392;-76
2023/07/20 08:29:49;;;;;;;3.40;1.00;;;;;;;22.47;61.70;101486.25;5260770;28;20029;-77
2023/07/20 08:32:21;;;;;;;1.60;1.00;;;;;;;22.49;62.30;101484.19;5239931;28;20032;-78
2023/07/20 08:34:52;;;;;;;1.97;1.07;;;;;;;22.65;60.06;101485.75;5263219;28;20032;-77
2023/07/20 08:37:24;;;;;;;1.30;0.80;;;;;;;22.92;62.49;101486.81;5255934;28;20470;-77
2023/07/20 08:39:55;;;;;;;1.50;0.70;;;;;;;23.09;61.56;101489.16;5252302;28;20109;-76
2023/07/20 08:42:27;;;;;;;2.33;0.90;;;;;;;22.89;59.48;101479.16;5252849;28;20052;-77
2023/07/20 08:44:59;;;;;;;2.60;0.80;;;;;;;22.90;58.89;101485.31;5253497;28;20032;-76
2023/07/20 08:47:31;;;;;;;;;;;;;;;23.81;59.77;101483.31;5241362;28;20166;-77
2023/07/20 08:50:05;;;;;;;1.40;0.70;;;;;;;23.11;58.32;101476.41;5258419;28;19917;-77
2023/07/20 08:52:36;;;;;;;1.25;0.60;;;;;;;23.29;54.61;101468.69;5228125;28;20305;-76
2023/07/20 08:55:08;;;;;;;1.43;0.67;;;;;;;23.56;56.02;101474.97;5254043;28;20021;-77
2023/07/20 08:57:42;;;;;;;1.80;0.70;;;;;;;23.68;54.35;101478.78;5238683;28;20732;-76
2023/07/20 09:00:14;;;;;;;1.98;0.90;;;;;;;23.53;54.26;101470.88;5257808;28;20498;-77
2023/07/20 09:02:49;;;;;;;1.15;0.70;;;;;;;23.88;56.39;101465.44;5256229;28;20052;-77
2023/07/20 09:05:22;;;;;;;1.40;0.93;;;;;;;23.95;52.48;101468.13;5244430;28;20029;-76
2023/07/20 09:07:54;;;;;;;2.28;0.85;;;;;;;23.87;51.31;101473.69;5254777;28;20482;-76
2023/07/20 09:10:25;;;;;;;2.50;0.60;;;;;;;24.02;49.88;101475.16;5265660;28;20043;-77
2023/07/20 09:12:56;;;;;;;2.00;0.67;;;;;;;24.59;53.50;101464.91;5261465;28;20082;-77
2023/07/20 09:15:29;;;;;;;2.00;0.70;;;;;;;24.73;47.44;101471.03;5258996;28;20736;-78
2023/07/20 09:18:02;;;;;;;1.90;0.80;;;;;;;24.45;48.11;101472.09;5257967;28;20029;-76
2023/07/20 09:20:36;;;;;;;1.58;0.70;;;;;;;24.76;48.03;101468.78;5252398;28;20137;-77
2023/07/20 09:23:07;;;;;;;1.77;0.50;;;;;;;24.66;47.42;101464.88;5261927;28;20089;-77
2023/07/20 09:25:40;;;;;;;1.30;0.60;;;;;;;24.63;47.99;101462.63;5254198;28;20545;-76
2023/07/20 09:28:12;;;;;;;1.13;0.57;;;;;;;24.33;46.87;101464.88;5240475;28;20040;-76
2023/07/20 09:30:43;;;;;;;1.07;0.53;;;;;;;24.37;47.64;101466.13;5240672;28;20062;-77
2023/07/20 09:33:24;;;;;;;1.30;0.80;;;;;;;24.59;48.08;101464.91;5254388;28;20107;-76
2023/07/20 09:36:02;;;;;;;2.00;0.90;;;;;;;24.27;46.59;101459.28;5255166;28;20020;-77
2023/07/20 09:38:35;;;;;;;0.93;0.60;;;;;;;23.95;45.53;101462.78;5251766;28;20099;-77
2023/07/20 09:41:07;;;;;;;1.75;0.70;;;;;;;23.72;48.97;101468.50;5249059;28;20036;-77
2023/07/20 09:43:39;;;;;;;3.23;0.80;;;;;;;23.68;54.10;101476.09;5250652;28;20451;-77
2023/07/20 09:46:10;;;;;;;2.60;0.57;;;;;;;23.54;56.40;101469.03;5252245;28;20049;-76
2023/07/20 09:48:53;;;;;;;2.03;0.60;;;;;;;23.67;55.68;101470.94;5239944;28;20458;-78
2023/07/20 09:51:24;;;;;;;2.30;0.90;;;;;;;23.48;56.71;101467.97;5259481;28;20527;-78
2023/07/20 09:53:56;;;;;;;3.00;0.90;;;;;;;23.22;58.63;101467.84;5240566;28;20021;-77
2023/07/20 09:56:30;;;;;;;4.60;1.17;;;;;;;23.17;60.00;101467.63;5241201;28;20409;-77
2023/07/20 09:59:01;;;;;;;2.78;0.88;;;;;;;23.14;60.69;101455.47;5255969;28;20095;-77
2023/07/20 10:01:34;;;;;;;5.70;1.20;;;;;;;23.45;56.15;101454.16;5232644;28;20031;-77
2023/07/20 10:04:08;;;;;;;4.13;1.00;;;;;;;23.73;56.97;101457.59;5255595;28;20070;-76
2023/07/20 10:06:43;;;;;;;2.30;0.70;;;;;;;23.81;55.12;101453.91;5257223;28;20516;-76
2023/07/20 10:09:17;;;;;;;2.40;0.90;;;;;;;23.62;53.48;101454.63;5233209;28;20055;-77
2023/07/20 10:11:53;;;;;;;1.55;0.80;;;;;;;23.96;55.12;101451.88;5240871;28;20573;-78
2023/07/20 10:14:28;;;;;;;2.38;0.85;;;;;;;23.98;53.25;101452.50;5245869;28;20028;-77
2023/07/20 10:17:02;;;;;;;1.10;0.60;;;;;;;24.38;53.98;101452.50;5243641;28;20108;-77
2023/07/20 10:19:46;;;;;;;1.73;0.73;;;;;;;24.67;52.27;101451.28;5235129;28;20094;-78
2023/07/20 10:22:24;;;;;;;2.63;0.90;;;;;;;24.47;47.80;101445.09;5255044;28;20025;-77
2023/07/20 10:25:04;;;;;;;1.65;0.70;;;;;;;24.56;48.49;101443.06;5249863;28;20048;-77
2023/07/20 10:27:47;;;;;;;1.90;0.80;;;;;;;25.04;49.58;101440.88;5255487;28;20039;-76
2023/07/20 10:30:20;;;;;;;4.90;0.80;;;;;;;25.02;47.66;101442.94;5231895;28;20045;-77
2023/07/20 10:32:52;;;;;;;;;;;;;;;26.19;45.53;101441.72;5238252;28;20020;-78
2023/07/20 10:35:23;;;;;;;1.10;0.60;;;;;;;25.26;43.61;101443.31;5254248;28;19909;-77
2023/07/20 10:38:02;;;;;;;1.97;0.77;;;;;;;25.11;45.09;101438.19;5255274;28;20020;-78
2023/07/20 10:40:37;;;;;;;0.80;0.50;;;;;;;24.90;45.39;101426.69;5252780;28;20033;-77
2023/07/20 10:43:10;;;;;;;1.50;0.65;;;;;;;24.82;44.63;101431.47;5258458;28;20049;-78
2023/07/20 10:45:53;;;;;;;1.63;0.80;;;;;;;25.29;44.59;101437.50;5257876;28;20135;-77
2023/07/20 10:48:25;;;;;;;2.63;0.75;;;;;;;25.20;45.07;101418.16;5244270;28;20072;-77
2023/07/20 10:51:16;;;;;;;1.10;0.60;;;;;;;25.64;43.45;101419.16;5253557;28;20668;-77
2023/07/20 10:53:49;;;;;;;1.73;0.77;;;;;;;25.28;43.96;101415.25;5240020;28;20127;-78
2023/07/20 10:56:21;;;;;;;1.58;0.70;;;;;;;25.07;41.57;101410.13;5244864;28;20110;-77
2023/07/20 10:58:59;;;;;;;1.38;0.63;;;;;;;25.33;45.00;101426.13;5256006;28;20052;-77
2023/07/20 11:01:36;;;;;;;0.85;0.50;;;;;;;25.21;45.37;101420.63;5258652;28;20524;-77
2023/07/20 11:04:08;;;;;;;2.58;0.77;;;;;;;24.91;44.59;101420.28;5258638;28;20041;-77
2023/07/20 11:06:43;;;;;;;0.90;0.45;;;;;;;25.02;43.91;101420.69;5243037;28;20498;-77
2023/07/20 11:09:14;;;;;;;1.83;0.77;;;;;;;24.99;44.13;101422.72;5240759;28;20143;-77
2023/07/20 11:11:48;;;;;;;1.97;0.60;;;;;;;25.04;44.66;101415.91;5263505;28;20036;-77
2023/07/20 11:14:28;;;;;;;1.90;0.70;;;;;;;24.89;45.28;101416.16;5271567;28;20405;-76
2023/07/20 11:17:14;;;;;;;2.78;0.75;;;;;;;25.07;45.52;101410.13;5263770;28;20074;-77
2023/07/20 11:19:48;;;;;;;1.17;0.68;;;;;;;24.79;46.32;101419.31;5262004;28;20032;-76
2023/07/20 11:22:20;;;;;;;1.90;0.70;;;;;;;24.97;46.15;101416.78;5246838;28;20090;-77
2023/07/20 11:24:55;;;;;;;3.55;0.68;;;;;;;25.59;46.54;101419.00;5265792;28;20045;-77
2023/07/20 11:27:28;;;;;;;1.55;0.70;;;;;;;25.85;44.45;101415.34;5264633;28;20474;-76
2023/07/20 11:29:59;;;;;;;1.80;0.95;;;;;;;25.97;41.71;101408.22;5261630;28;20402;-76
2023/07/20 11:32:30;;;;;;;1.17;0.60;;;;;;;25.86;41.35;101411.63;5242457;28;20036;-77
2023/07/20 11:35:01;;;;;;;1.23;0.70;;;;;;;25.91;42.41;101409.94;5262163;28;20368;-78
2023/07/20 11:37:33;;;;;;;2.93;0.80;;;;;;;25.58;42.58;101407.44;5268745;28;20448;-77
2023/07/20 11:40:05;;;;;;;1.33;0.70;;;;;;;25.39;43.22;101411.06;5262223;28;20461;-78
2023/07/20 11:42:36;;;;;;;2.90;0.70;;;;;;;25.20;42.77;101404.75;5264553;28;20020;-78